sensor_id;sensor_type;location;lat;lon;timestamp;P1;durP1;ratioP1;P2;durP2;ratioP2
71353;SDS011;59393;51.652;4.864;2022-10-29T00:00:54;10.50;;;4.00;;
71353;SDS011;59393;51.652;4.864;2022-10-29T00:03:22;12.90;;;4.00;;
71353;SDS011;59393;51.652;4.864;2022-10-29T00:05:58;15.07;;;3.93;;
71353;SDS011;59393;51.652;4.864;2022-10-29T00:08:25;14.13;;;4.07;;
71353;SDS011;59393;51.652;4.864;2022-10-29T00:10:51;12.88;;;4.43;;
71353;SDS011;59393;51.652;4.864;2022-10-29T00:13:17;12.60;;;4.43;;
71353;SDS011;59393;51.652;4.864;2022-10-29T00:15:43;10.33;;;3.97;;
71353;SDS011;59393;51.652;4.864;2022-10-29T00:18:09;11.90;;;4.53;;
71353;SDS011;59393;51.652;4.864;2022-10-29T00:20:35;13.00;;;4.53;;
71353;SDS011;59393;51.652;4.864;2022-10-29T00:23:01;10.15;;;4.57;;
71353;SDS011;59393;51.652;4.864;2022-10-29T00:25:27;15.48;;;3.85;;
71353;SDS011;59393;51.652;4.864;2022-10-29T00:27:54;14.50;;;4.53;;
71353;SDS011;59393;51.652;4.864;2022-10-29T00:30:20;14.77;;;4.20;;
71353;SDS011;59393;51.652;4.864;2022-10-29T00:32:46;12.88;;;4.35;;
71353;SDS011;59393;51.652;4.864;2022-10-29T00:35:13;15.50;;;4.43;;
71353;SDS011;59393;51.652;4.864;2022-10-29T00:37:40;16.88;;;3.95;;
71353;SDS011;59393;51.652;4.864;2022-10-29T00:40:08;11.33;;;4.30;;
71353;SDS011;59393;51.652;4.864;2022-10-29T00:42:34;12.88;;;4.22;;
71353;SDS011;59393;51.652;4.864;2022-10-29T00:45:00;14.07;;;4.20;;
71353;SDS011;59393;51.652;4.864;2022-10-29T00:47:28;13.48;;;4.80;;
71353;SDS011;59393;51.652;4.864;2022-10-29T00:50:02;10.98;;;4.38;;
71353;SDS011;59393;51.652;4.864;2022-10-29T00:52:29;13.93;;;4.50;;
71353;SDS011;59393;51.652;4.864;2022-10-29T00:54:58;12.48;;;4.53;;
71353;SDS011;59393;51.652;4.864;2022-10-29T00:57:27;19.35;;;4.75;;
71353;SDS011;59393;51.652;4.864;2022-10-29T00:59:54;12.85;;;4.82;;
71353;SDS011;59393;51.652;4.864;2022-10-29T01:02:22;14.95;;;5.15;;
71353;SDS011;59393;51.652;4.864;2022-10-29T01:04:49;13.97;;;4.80;;
71353;SDS011;59393;51.652;4.864;2022-10-29T01:07:16;11.82;;;4.85;;
71353;SDS011;59393;51.652;4.864;2022-10-29T01:09:42;17.20;;;4.50;;
71353;SDS011;59393;51.652;4.864;2022-10-29T01:12:15;13.85;;;4.50;;
71353;SDS011;59393;51.652;4.864;2022-10-29T01:33:21;11.45;;;4.82;;
71353;SDS011;59393;51.652;4.864;2022-10-29T01:41:12;14.23;;;6.10;;
71353;SDS011;59393;51.652;4.864;2022-10-29T01:43:49;14.37;;;5.03;;
71353;SDS011;59393;51.652;4.864;2022-10-29T01:46:17;22.85;;;5.78;;
71353;SDS011;59393;51.652;4.864;2022-10-29T01:48:45;12.45;;;5.20;;
71353;SDS011;59393;51.652;4.864;2022-10-29T01:51:15;13.35;;;5.05;;
71353;SDS011;59393;51.652;4.864;2022-10-29T01:53:43;11.60;;;5.80;;
71353;SDS011;59393;51.652;4.864;2022-10-29T01:56:16;17.93;;;5.17;;
71353;SDS011;59393;51.652;4.864;2022-10-29T01:58:44;11.52;;;5.47;;
71353;SDS011;59393;51.652;4.864;2022-10-29T02:03:50;14.85;;;5.32;;
71353;SDS011;59393;51.652;4.864;2022-10-29T02:09:16;12.18;;;5.38;;
71353;SDS011;59393;51.652;4.864;2022-10-29T02:16:41;15.13;;;5.38;;
71353;SDS011;59393;51.652;4.864;2022-10-29T02:19:08;12.10;;;4.90;;
71353;SDS011;59393;51.652;4.864;2022-10-29T02:21:34;13.40;;;5.15;;
71353;SDS011;59393;51.652;4.864;2022-10-29T02:24:00;11.98;;;5.25;;
71353;SDS011;59393;51.652;4.864;2022-10-29T02:26:28;13.23;;;4.63;;
71353;SDS011;59393;51.652;4.864;2022-10-29T02:28:54;14.30;;;4.53;;
71353;SDS011;59393;51.652;4.864;2022-10-29T02:31:20;13.43;;;4.80;;
71353;SDS011;59393;51.652;4.864;2022-10-29T02:33:46;14.25;;;4.57;;
71353;SDS011;59393;51.652;4.864;2022-10-29T02:36:12;13.15;;;4.63;;
71353;SDS011;59393;51.652;4.864;2022-10-29T02:38:48;13.00;;;4.43;;
71353;SDS011;59393;51.652;4.864;2022-10-29T02:41:35;13.07;;;4.33;;
71353;SDS011;59393;51.652;4.864;2022-10-29T02:44:01;17.23;;;5.43;;
71353;SDS011;59393;51.652;4.864;2022-10-29T02:46:30;15.70;;;5.75;;
71353;SDS011;59393;51.652;4.864;2022-10-29T02:48:59;11.18;;;5.20;;
71353;SDS011;59393;51.652;4.864;2022-10-29T02:51:30;15.37;;;5.90;;
71353;SDS011;59393;51.652;4.864;2022-10-29T02:53:56;18.73;;;6.05;;
71353;SDS011;59393;51.652;4.864;2022-10-29T02:56:23;17.05;;;6.75;;
71353;SDS011;59393;51.652;4.864;2022-10-29T02:58:49;16.23;;;6.75;;
71353;SDS011;59393;51.652;4.864;2022-10-29T03:01:24;16.02;;;7.25;;
71353;SDS011;59393;51.652;4.864;2022-10-29T03:04:10;13.73;;;6.60;;
71353;SDS011;59393;51.652;4.864;2022-10-29T03:06:38;15.80;;;6.47;;
71353;SDS011;59393;51.652;4.864;2022-10-29T03:09:05;19.38;;;7.55;;
71353;SDS011;59393;51.652;4.864;2022-10-29T03:11:31;15.50;;;7.13;;
71353;SDS011;59393;51.652;4.864;2022-10-29T03:13:59;13.75;;;7.07;;
71353;SDS011;59393;51.652;4.864;2022-10-29T03:16:26;21.20;;;7.07;;
71353;SDS011;59393;51.652;4.864;2022-10-29T03:18:52;14.80;;;6.75;;
71353;SDS011;59393;51.652;4.864;2022-10-29T03:21:18;15.05;;;7.45;;
71353;SDS011;59393;51.652;4.864;2022-10-29T03:23:44;19.58;;;7.63;;
71353;SDS011;59393;51.652;4.864;2022-10-29T03:26:12;12.40;;;6.30;;
71353;SDS011;59393;51.652;4.864;2022-10-29T03:28:46;15.63;;;7.28;;
71353;SDS011;59393;51.652;4.864;2022-10-29T03:31:31;14.75;;;6.07;;
71353;SDS011;59393;51.652;4.864;2022-10-29T03:33:57;14.05;;;7.60;;
71353;SDS011;59393;51.652;4.864;2022-10-29T03:36:23;14.48;;;6.38;;
71353;SDS011;59393;51.652;4.864;2022-10-29T03:38:49;15.07;;;6.80;;
71353;SDS011;59393;51.652;4.864;2022-10-29T03:41:20;17.75;;;6.32;;
71353;SDS011;59393;51.652;4.864;2022-10-29T03:43:46;16.67;;;6.90;;
71353;SDS011;59393;51.652;4.864;2022-10-29T03:46:18;14.15;;;6.88;;
71353;SDS011;59393;51.652;4.864;2022-10-29T03:48:47;12.18;;;6.63;;
71353;SDS011;59393;51.652;4.864;2022-10-29T03:51:14;17.33;;;7.07;;
71353;SDS011;59393;51.652;4.864;2022-10-29T03:53:41;16.05;;;6.57;;
71353;SDS011;59393;51.652;4.864;2022-10-29T03:56:12;16.40;;;6.45;;
71353;SDS011;59393;51.652;4.864;2022-10-29T03:58:40;16.25;;;6.60;;
71353;SDS011;59393;51.652;4.864;2022-10-29T04:01:07;14.88;;;6.68;;
71353;SDS011;59393;51.652;4.864;2022-10-29T04:03:35;17.20;;;7.03;;
71353;SDS011;59393;51.652;4.864;2022-10-29T04:06:08;17.33;;;7.32;;
71353;SDS011;59393;51.652;4.864;2022-10-29T04:08:34;19.60;;;7.70;;
71353;SDS011;59393;51.652;4.864;2022-10-29T04:11:00;15.38;;;7.30;;
71353;SDS011;59393;51.652;4.864;2022-10-29T04:13:29;21.98;;;7.60;;
71353;SDS011;59393;51.652;4.864;2022-10-29T04:15:55;15.23;;;7.30;;
71353;SDS011;59393;51.652;4.864;2022-10-29T04:18:23;18.13;;;7.50;;
71353;SDS011;59393;51.652;4.864;2022-10-29T04:20:51;18.15;;;7.35;;
71353;SDS011;59393;51.652;4.864;2022-10-29T04:23:17;23.80;;;8.45;;
71353;SDS011;59393;51.652;4.864;2022-10-29T04:25:53;18.05;;;8.25;;
71353;SDS011;59393;51.652;4.864;2022-10-29T04:28:19;16.03;;;7.13;;
71353;SDS011;59393;51.652;4.864;2022-10-29T04:30:45;16.77;;;7.55;;
71353;SDS011;59393;51.652;4.864;2022-10-29T04:33:11;15.77;;;8.10;;
71353;SDS011;59393;51.652;4.864;2022-10-29T04:35:40;16.67;;;7.57;;
71353;SDS011;59393;51.652;4.864;2022-10-29T04:38:19;18.73;;;8.17;;
71353;SDS011;59393;51.652;4.864;2022-10-29T04:40:47;16.48;;;7.35;;
71353;SDS011;59393;51.652;4.864;2022-10-29T04:43:21;19.42;;;8.15;;
71353;SDS011;59393;51.652;4.864;2022-10-29T04:45:51;18.83;;;8.77;;
71353;SDS011;59393;51.652;4.864;2022-10-29T04:48:22;17.95;;;8.10;;
71353;SDS011;59393;51.652;4.864;2022-10-29T04:50:55;19.33;;;8.40;;
71353;SDS011;59393;51.652;4.864;2022-10-29T04:53:24;20.52;;;7.68;;
71353;SDS011;59393;51.652;4.864;2022-10-29T04:55:57;22.33;;;7.57;;
71353;SDS011;59393;51.652;4.864;2022-10-29T04:58:24;19.17;;;8.10;;
71353;SDS011;59393;51.652;4.864;2022-10-29T05:00:50;20.40;;;8.68;;
71353;SDS011;59393;51.652;4.864;2022-10-29T05:03:16;18.80;;;8.60;;
71353;SDS011;59393;51.652;4.864;2022-10-29T05:05:43;21.52;;;8.43;;
71353;SDS011;59393;51.652;4.864;2022-10-29T05:08:14;22.08;;;7.55;;
71353;SDS011;59393;51.652;4.864;2022-10-29T05:10:41;17.88;;;7.55;;
71353;SDS011;59393;51.652;4.864;2022-10-29T05:13:11;13.53;;;6.70;;
71353;SDS011;59393;51.652;4.864;2022-10-29T05:15:37;17.73;;;8.02;;
71353;SDS011;59393;51.652;4.864;2022-10-29T05:18:07;17.27;;;7.88;;
71353;SDS011;59393;51.652;4.864;2022-10-29T05:20:37;16.63;;;8.07;;
71353;SDS011;59393;51.652;4.864;2022-10-29T05:23:05;25.95;;;8.60;;
71353;SDS011;59393;51.652;4.864;2022-10-29T05:25:32;22.20;;;8.47;;
71353;SDS011;59393;51.652;4.864;2022-10-29T05:27:59;24.20;;;9.77;;
71353;SDS011;59393;51.652;4.864;2022-10-29T05:30:28;25.25;;;10.10;;
71353;SDS011;59393;51.652;4.864;2022-10-29T05:33:07;24.75;;;9.90;;
71353;SDS011;59393;51.652;4.864;2022-10-29T05:35:35;24.73;;;9.60;;
71353;SDS011;59393;51.652;4.864;2022-10-29T05:38:02;21.53;;;9.50;;
71353;SDS011;59393;51.652;4.864;2022-10-29T05:40:29;24.65;;;10.05;;
71353;SDS011;59393;51.652;4.864;2022-10-29T05:42:56;23.45;;;9.18;;
71353;SDS011;59393;51.652;4.864;2022-10-29T05:45:22;24.45;;;9.35;;
71353;SDS011;59393;51.652;4.864;2022-10-29T05:47:54;25.83;;;9.70;;
71353;SDS011;59393;51.652;4.864;2022-10-29T05:50:20;18.67;;;8.83;;
71353;SDS011;59393;51.652;4.864;2022-10-29T05:52:53;19.17;;;7.93;;
71353;SDS011;59393;51.652;4.864;2022-10-29T05:55:19;27.50;;;9.35;;
71353;SDS011;59393;51.652;4.864;2022-10-29T05:57:45;24.33;;;8.68;;
71353;SDS011;59393;51.652;4.864;2022-10-29T06:00:12;21.10;;;9.05;;
71353;SDS011;59393;51.652;4.864;2022-10-29T06:02:41;21.53;;;8.77;;
71353;SDS011;59393;51.652;4.864;2022-10-29T06:05:10;21.52;;;9.73;;
71353;SDS011;59393;51.652;4.864;2022-10-29T06:07:44;22.85;;;8.98;;
71353;SDS011;59393;51.652;4.864;2022-10-29T06:10:10;23.73;;;8.80;;
71353;SDS011;59393;51.652;4.864;2022-10-29T06:12:36;20.70;;;9.13;;
71353;SDS011;59393;51.652;4.864;2022-10-29T06:15:02;20.30;;;8.60;;
71353;SDS011;59393;51.652;4.864;2022-10-29T06:17:31;20.50;;;8.40;;
71353;SDS011;59393;51.652;4.864;2022-10-29T06:19:58;21.85;;;8.82;;
71353;SDS011;59393;51.652;4.864;2022-10-29T06:22:24;18.05;;;8.88;;
71353;SDS011;59393;51.652;4.864;2022-10-29T06:24:52;23.55;;;9.80;;
71353;SDS011;59393;51.652;4.864;2022-10-29T06:27:19;27.23;;;10.33;;
71353;SDS011;59393;51.652;4.864;2022-10-29T06:29:45;26.80;;;9.40;;
71353;SDS011;59393;51.652;4.864;2022-10-29T06:32:10;25.42;;;9.90;;
71353;SDS011;59393;51.652;4.864;2022-10-29T06:34:37;23.50;;;10.23;;
71353;SDS011;59393;51.652;4.864;2022-10-29T06:37:03;22.83;;;9.57;;
71353;SDS011;59393;51.652;4.864;2022-10-29T06:39:29;22.50;;;10.50;;
71353;SDS011;59393;51.652;4.864;2022-10-29T06:41:56;29.25;;;10.23;;
71353;SDS011;59393;51.652;4.864;2022-10-29T06:44:22;27.20;;;10.63;;
71353;SDS011;59393;51.652;4.864;2022-10-29T06:46:48;26.50;;;9.88;;
71353;SDS011;59393;51.652;4.864;2022-10-29T06:49:14;26.93;;;9.43;;
71353;SDS011;59393;51.652;4.864;2022-10-29T06:51:43;23.77;;;9.77;;
71353;SDS011;59393;51.652;4.864;2022-10-29T06:54:09;20.77;;;9.48;;
71353;SDS011;59393;51.652;4.864;2022-10-29T06:56:35;23.70;;;9.27;;
71353;SDS011;59393;51.652;4.864;2022-10-29T06:59:01;23.83;;;8.95;;
71353;SDS011;59393;51.652;4.864;2022-10-29T07:01:27;25.70;;;9.30;;
71353;SDS011;59393;51.652;4.864;2022-10-29T07:03:54;20.80;;;8.80;;
71353;SDS011;59393;51.652;4.864;2022-10-29T07:06:20;21.98;;;8.50;;
71353;SDS011;59393;51.652;4.864;2022-10-29T07:08:46;21.95;;;8.25;;
71353;SDS011;59393;51.652;4.864;2022-10-29T07:11:12;21.58;;;8.63;;
71353;SDS011;59393;51.652;4.864;2022-10-29T07:13:38;24.45;;;8.68;;
71353;SDS011;59393;51.652;4.864;2022-10-29T07:16:04;19.87;;;10.07;;
71353;SDS011;59393;51.652;4.864;2022-10-29T07:18:30;24.92;;;9.35;;
71353;SDS011;59393;51.652;4.864;2022-10-29T07:20:56;27.27;;;9.30;;
71353;SDS011;59393;51.652;4.864;2022-10-29T07:23:22;24.42;;;9.52;;
71353;SDS011;59393;51.652;4.864;2022-10-29T07:25:51;23.67;;;9.80;;
71353;SDS011;59393;51.652;4.864;2022-10-29T07:28:23;21.40;;;9.13;;
71353;SDS011;59393;51.652;4.864;2022-10-29T07:30:49;25.25;;;10.40;;
71353;SDS011;59393;51.652;4.864;2022-10-29T07:33:16;27.92;;;10.98;;
71353;SDS011;59393;51.652;4.864;2022-10-29T07:35:42;24.00;;;9.73;;
71353;SDS011;59393;51.652;4.864;2022-10-29T07:38:09;28.58;;;10.40;;
71353;SDS011;59393;51.652;4.864;2022-10-29T07:40:35;33.30;;;12.63;;
71353;SDS011;59393;51.652;4.864;2022-10-29T07:43:02;30.77;;;11.32;;
71353;SDS011;59393;51.652;4.864;2022-10-29T07:45:29;23.45;;;10.68;;
71353;SDS011;59393;51.652;4.864;2022-10-29T07:47:58;22.48;;;10.15;;
71353;SDS011;59393;51.652;4.864;2022-10-29T07:50:25;26.30;;;11.95;;
71353;SDS011;59393;51.652;4.864;2022-10-29T07:52:51;26.83;;;11.03;;
71353;SDS011;59393;51.652;4.864;2022-10-29T07:55:18;27.75;;;12.07;;
71353;SDS011;59393;51.652;4.864;2022-10-29T07:57:45;31.27;;;11.43;;
71353;SDS011;59393;51.652;4.864;2022-10-29T08:00:11;31.17;;;11.90;;
71353;SDS011;59393;51.652;4.864;2022-10-29T08:02:39;28.02;;;11.98;;
71353;SDS011;59393;51.652;4.864;2022-10-29T08:05:06;24.47;;;10.63;;
71353;SDS011;59393;51.652;4.864;2022-10-29T08:07:33;23.08;;;10.93;;
71353;SDS011;59393;51.652;4.864;2022-10-29T08:09:59;23.85;;;10.50;;
71353;SDS011;59393;51.652;4.864;2022-10-29T08:12:25;26.02;;;10.70;;
71353;SDS011;59393;51.652;4.864;2022-10-29T08:14:51;21.85;;;10.13;;
71353;SDS011;59393;51.652;4.864;2022-10-29T08:17:17;18.70;;;9.60;;
71353;SDS011;59393;51.652;4.864;2022-10-29T08:19:43;21.25;;;10.90;;
71353;SDS011;59393;51.652;4.864;2022-10-29T08:22:11;21.25;;;10.32;;
71353;SDS011;59393;51.652;4.864;2022-10-29T08:24:37;28.85;;;10.52;;
71353;SDS011;59393;51.652;4.864;2022-10-29T08:27:03;25.57;;;10.87;;
71353;SDS011;59393;51.652;4.864;2022-10-29T08:29:29;24.77;;;10.43;;
71353;SDS011;59393;51.652;4.864;2022-10-29T08:31:55;20.08;;;10.98;;
71353;SDS011;59393;51.652;4.864;2022-10-29T08:34:21;29.17;;;12.20;;
71353;SDS011;59393;51.652;4.864;2022-10-29T08:36:46;26.35;;;10.68;;
71353;SDS011;59393;51.652;4.864;2022-10-29T08:39:14;23.52;;;10.85;;
71353;SDS011;59393;51.652;4.864;2022-10-29T08:49:41;22.85;;;10.00;;
71353;SDS011;59393;51.652;4.864;2022-10-29T08:52:09;25.50;;;10.90;;
71353;SDS011;59393;51.652;4.864;2022-10-29T08:54:38;20.13;;;9.20;;
71353;SDS011;59393;51.652;4.864;2022-10-29T08:57:07;22.42;;;10.00;;
71353;SDS011;59393;51.652;4.864;2022-10-29T08:59:44;18.95;;;9.32;;
71353;SDS011;59393;51.652;4.864;2022-10-29T09:02:13;19.75;;;8.48;;
71353;SDS011;59393;51.652;4.864;2022-10-29T09:04:41;19.08;;;8.73;;
71353;SDS011;59393;51.652;4.864;2022-10-29T09:12:06;20.35;;;8.30;;
71353;SDS011;59393;51.652;4.864;2022-10-29T09:17:25;21.23;;;8.75;;
71353;SDS011;59393;51.652;4.864;2022-10-29T09:19:59;18.30;;;8.83;;
71353;SDS011;59393;51.652;4.864;2022-10-29T09:27:37;23.70;;;8.27;;
71353;SDS011;59393;51.652;4.864;2022-10-29T09:32:37;20.10;;;8.07;;
71353;SDS011;59393;51.652;4.864;2022-10-29T09:35:05;16.92;;;8.20;;
71353;SDS011;59393;51.652;4.864;2022-10-29T09:37:52;16.92;;;7.88;;
71353;SDS011;59393;51.652;4.864;2022-10-29T09:40:32;16.95;;;8.30;;
71353;SDS011;59393;51.652;4.864;2022-10-29T09:42:59;15.38;;;7.55;;
71353;SDS011;59393;51.652;4.864;2022-10-29T09:45:33;19.80;;;7.53;;
71353;SDS011;59393;51.652;4.864;2022-10-29T09:48:06;22.52;;;8.18;;
71353;SDS011;59393;51.652;4.864;2022-10-29T09:50:38;16.48;;;7.40;;
71353;SDS011;59393;51.652;4.864;2022-10-29T09:53:06;12.43;;;6.35;;
71353;SDS011;59393;51.652;4.864;2022-10-29T09:55:42;17.17;;;7.07;;
71353;SDS011;59393;51.652;4.864;2022-10-29T09:58:22;14.17;;;6.83;;
71353;SDS011;59393;51.652;4.864;2022-10-29T10:00:49;16.70;;;7.35;;
71353;SDS011;59393;51.652;4.864;2022-10-29T10:03:54;17.27;;;6.60;;
71353;SDS011;59393;51.652;4.864;2022-10-29T10:06:11;19.02;;;6.82;;
71353;SDS011;59393;51.652;4.864;2022-10-29T10:08:56;17.95;;;7.20;;
71353;SDS011;59393;51.652;4.864;2022-10-29T10:11:23;15.97;;;5.87;;
71353;SDS011;59393;51.652;4.864;2022-10-29T10:13:56;15.27;;;6.10;;
71353;SDS011;59393;51.652;4.864;2022-10-29T10:16:23;15.18;;;5.05;;
71353;SDS011;59393;51.652;4.864;2022-10-29T10:18:49;15.82;;;5.57;;
71353;SDS011;59393;51.652;4.864;2022-10-29T10:21:28;18.35;;;5.28;;
71353;SDS011;59393;51.652;4.864;2022-10-29T10:23:57;15.20;;;5.50;;
71353;SDS011;59393;51.652;4.864;2022-10-29T10:26:42;15.75;;;5.45;;
71353;SDS011;59393;51.652;4.864;2022-10-29T10:31:35;17.17;;;5.45;;
71353;SDS011;59393;51.652;4.864;2022-10-29T10:34:07;14.40;;;4.77;;
71353;SDS011;59393;51.652;4.864;2022-10-29T10:36:33;15.87;;;4.63;;
71353;SDS011;59393;51.652;4.864;2022-10-29T10:39:03;21.80;;;4.82;;
71353;SDS011;59393;51.652;4.864;2022-10-29T10:41:29;17.55;;;4.65;;
71353;SDS011;59393;51.652;4.864;2022-10-29T10:44:02;14.02;;;4.03;;
71353;SDS011;59393;51.652;4.864;2022-10-29T10:46:38;14.00;;;4.32;;
71353;SDS011;59393;51.652;4.864;2022-10-29T10:51:50;13.48;;;4.25;;
71353;SDS011;59393;51.652;4.864;2022-10-29T10:54:26;9.15;;;3.53;;
71353;SDS011;59393;51.652;4.864;2022-10-29T10:56:57;16.63;;;3.72;;
71353;SDS011;59393;51.652;4.864;2022-10-29T10:59:25;9.13;;;3.15;;
71353;SDS011;59393;51.652;4.864;2022-10-29T11:01:52;13.40;;;4.70;;
71353;SDS011;59393;51.652;4.864;2022-10-29T11:04:19;18.20;;;5.05;;
71353;SDS011;59393;51.652;4.864;2022-10-29T11:06:49;11.23;;;4.50;;
71353;SDS011;59393;51.652;4.864;2022-10-29T11:09:36;13.23;;;3.90;;
71353;SDS011;59393;51.652;4.864;2022-10-29T11:12:09;12.27;;;3.95;;
71353;SDS011;59393;51.652;4.864;2022-10-29T11:14:45;9.50;;;3.97;;
71353;SDS011;59393;51.652;4.864;2022-10-29T11:20:05;14.00;;;3.40;;
71353;SDS011;59393;51.652;4.864;2022-10-29T11:25:07;14.97;;;3.80;;
71353;SDS011;59393;51.652;4.864;2022-10-29T11:30:17;11.05;;;3.78;;
71353;SDS011;59393;51.652;4.864;2022-10-29T11:35:17;12.95;;;3.40;;
71353;SDS011;59393;51.652;4.864;2022-10-29T11:37:49;10.02;;;3.10;;
71353;SDS011;59393;51.652;4.864;2022-10-29T11:40:36;10.43;;;2.70;;
71353;SDS011;59393;51.652;4.864;2022-10-29T11:43:08;9.75;;;3.50;;
71353;SDS011;59393;51.652;4.864;2022-10-29T11:50:42;10.55;;;3.50;;
71353;SDS011;59393;51.652;4.864;2022-10-29T11:53:17;9.60;;;2.87;;
71353;SDS011;59393;51.652;4.864;2022-10-29T11:55:52;8.93;;;3.20;;
71353;SDS011;59393;51.652;4.864;2022-10-29T11:58:35;14.63;;;3.30;;
71353;SDS011;59393;51.652;4.864;2022-10-29T12:01:08;9.73;;;3.17;;
71353;SDS011;59393;51.652;4.864;2022-10-29T12:03:42;15.60;;;2.88;;
71353;SDS011;59393;51.652;4.864;2022-10-29T12:14:03;11.10;;;3.17;;
71353;SDS011;59393;51.652;4.864;2022-10-29T12:16:35;10.20;;;3.80;;
71353;SDS011;59393;51.652;4.864;2022-10-29T12:21:40;10.25;;;3.05;;
71353;SDS011;59393;51.652;4.864;2022-10-29T12:29:20;11.43;;;3.20;;
71353;SDS011;59393;51.652;4.864;2022-10-29T12:31:50;14.32;;;4.60;;
71353;SDS011;59393;51.652;4.864;2022-10-29T12:39:31;12.68;;;3.30;;
71353;SDS011;59393;51.652;4.864;2022-10-29T12:42:04;14.47;;;3.00;;
71353;SDS011;59393;51.652;4.864;2022-10-29T12:44:40;12.38;;;2.78;;
71353;SDS011;59393;51.652;4.864;2022-10-29T12:47:14;9.75;;;2.92;;
71353;SDS011;59393;51.652;4.864;2022-10-29T12:52:28;14.73;;;2.95;;
71353;SDS011;59393;51.652;4.864;2022-10-29T12:54:56;11.33;;;3.07;;
71353;SDS011;59393;51.652;4.864;2022-10-29T12:57:34;15.93;;;3.03;;
71353;SDS011;59393;51.652;4.864;2022-10-29T13:02:45;11.60;;;2.63;;
71353;SDS011;59393;51.652;4.864;2022-10-29T13:05:11;10.40;;;2.83;;
71353;SDS011;59393;51.652;4.864;2022-10-29T13:15:35;14.00;;;3.22;;
71353;SDS011;59393;51.652;4.864;2022-10-29T13:18:05;14.07;;;2.53;;
71353;SDS011;59393;51.652;4.864;2022-10-29T13:20:34;18.30;;;2.67;;
71353;SDS011;59393;51.652;4.864;2022-10-29T13:23:01;11.02;;;2.60;;
71353;SDS011;59393;51.652;4.864;2022-10-29T13:27:54;13.10;;;2.72;;
71353;SDS011;59393;51.652;4.864;2022-10-29T13:30:24;18.85;;;2.88;;
71353;SDS011;59393;51.652;4.864;2022-10-29T13:32:51;10.57;;;3.30;;
71353;SDS011;59393;51.652;4.864;2022-10-29T13:37:53;9.88;;;2.50;;
71353;SDS011;59393;51.652;4.864;2022-10-29T13:43:01;11.50;;;3.27;;
71353;SDS011;59393;51.652;4.864;2022-10-29T13:45:27;12.82;;;2.83;;
71353;SDS011;59393;51.652;4.864;2022-10-29T13:47:55;15.18;;;3.63;;
71353;SDS011;59393;51.652;4.864;2022-10-29T13:50:24;10.43;;;3.03;;
71353;SDS011;59393;51.652;4.864;2022-10-29T13:52:50;11.20;;;2.72;;
71353;SDS011;59393;51.652;4.864;2022-10-29T13:55:18;19.00;;;3.60;;
71353;SDS011;59393;51.652;4.864;2022-10-29T13:57:50;14.85;;;3.03;;
71353;SDS011;59393;51.652;4.864;2022-10-29T14:00:19;14.98;;;3.85;;
71353;SDS011;59393;51.652;4.864;2022-10-29T14:05:43;13.80;;;2.88;;
71353;SDS011;59393;51.652;4.864;2022-10-29T14:13:21;14.18;;;3.00;;
71353;SDS011;59393;51.652;4.864;2022-10-29T14:18:33;15.57;;;2.95;;
71353;SDS011;59393;51.652;4.864;2022-10-29T14:21:00;9.13;;;3.03;;
71353;SDS011;59393;51.652;4.864;2022-10-29T14:23:27;16.58;;;3.25;;
71353;SDS011;59393;51.652;4.864;2022-10-29T14:25:55;11.85;;;3.40;;
71353;SDS011;59393;51.652;4.864;2022-10-29T14:33:35;13.07;;;3.67;;
71353;SDS011;59393;51.652;4.864;2022-10-29T14:38:50;13.57;;;3.15;;
71353;SDS011;59393;51.652;4.864;2022-10-29T14:41:17;13.40;;;3.03;;
71353;SDS011;59393;51.652;4.864;2022-10-29T14:43:45;16.40;;;3.33;;
71353;SDS011;59393;51.652;4.864;2022-10-29T14:48:58;15.70;;;4.00;;
71353;SDS011;59393;51.652;4.864;2022-10-29T14:51:25;11.60;;;3.10;;
71353;SDS011;59393;51.652;4.864;2022-10-29T14:53:52;11.35;;;3.00;;
71353;SDS011;59393;51.652;4.864;2022-10-29T14:56:19;12.00;;;3.40;;
71353;SDS011;59393;51.652;4.864;2022-10-29T14:58:45;13.52;;;2.70;;
71353;SDS011;59393;51.652;4.864;2022-10-29T15:01:13;13.95;;;3.85;;
71353;SDS011;59393;51.652;4.864;2022-10-29T15:03:45;14.45;;;3.20;;
71353;SDS011;59393;51.652;4.864;2022-10-29T15:06:24;12.85;;;3.83;;
71353;SDS011;59393;51.652;4.864;2022-10-29T15:08:57;13.03;;;3.57;;
71353;SDS011;59393;51.652;4.864;2022-10-29T15:13:56;17.98;;;4.80;;
71353;SDS011;59393;51.652;4.864;2022-10-29T15:16:22;12.70;;;4.30;;
71353;SDS011;59393;51.652;4.864;2022-10-29T15:18:48;14.38;;;3.58;;
71353;SDS011;59393;51.652;4.864;2022-10-29T15:21:21;15.30;;;4.20;;
71353;SDS011;59393;51.652;4.864;2022-10-29T15:23:48;17.65;;;4.70;;
71353;SDS011;59393;51.652;4.864;2022-10-29T15:26:17;11.75;;;4.30;;
71353;SDS011;59393;51.652;4.864;2022-10-29T15:28:45;17.13;;;3.80;;
71353;SDS011;59393;51.652;4.864;2022-10-29T15:31:22;18.63;;;3.90;;
71353;SDS011;59393;51.652;4.864;2022-10-29T15:33:51;15.60;;;3.80;;
71353;SDS011;59393;51.652;4.864;2022-10-29T15:36:18;11.77;;;3.25;;
71353;SDS011;59393;51.652;4.864;2022-10-29T15:43:49;11.93;;;3.60;;
71353;SDS011;59393;51.652;4.864;2022-10-29T15:48:50;15.00;;;4.97;;
71353;SDS011;59393;51.652;4.864;2022-10-29T15:51:17;18.60;;;4.70;;
71353;SDS011;59393;51.652;4.864;2022-10-29T15:53:43;10.45;;;4.45;;
71353;SDS011;59393;51.652;4.864;2022-10-29T15:56:09;14.20;;;4.10;;
71353;SDS011;59393;51.652;4.864;2022-10-29T15:58:36;13.10;;;3.47;;
71353;SDS011;59393;51.652;4.864;2022-10-29T16:01:02;20.45;;;3.90;;
71353;SDS011;59393;51.652;4.864;2022-10-29T16:03:28;18.38;;;5.00;;
71353;SDS011;59393;51.652;4.864;2022-10-29T16:05:56;15.07;;;3.53;;
71353;SDS011;59393;51.652;4.864;2022-10-29T16:10:50;14.25;;;3.92;;
71353;SDS011;59393;51.652;4.864;2022-10-29T16:13:17;10.88;;;3.45;;
71353;SDS011;59393;51.652;4.864;2022-10-29T16:15:43;9.80;;;3.55;;
71353;SDS011;59393;51.652;4.864;2022-10-29T16:18:09;13.13;;;4.28;;
71353;SDS011;59393;51.652;4.864;2022-10-29T16:20:35;14.27;;;3.07;;
71353;SDS011;59393;51.652;4.864;2022-10-29T16:23:01;10.90;;;3.10;;
71353;SDS011;59393;51.652;4.864;2022-10-29T16:25:27;13.18;;;3.80;;
71353;SDS011;59393;51.652;4.864;2022-10-29T16:27:54;11.40;;;3.20;;
71353;SDS011;59393;51.652;4.864;2022-10-29T16:30:21;16.08;;;3.55;;
71353;SDS011;59393;51.652;4.864;2022-10-29T16:32:47;17.00;;;3.77;;
71353;SDS011;59393;51.652;4.864;2022-10-29T16:35:24;12.50;;;3.10;;
71353;SDS011;59393;51.652;4.864;2022-10-29T16:37:51;14.02;;;3.88;;
71353;SDS011;59393;51.652;4.864;2022-10-29T16:40:18;13.95;;;3.40;;
71353;SDS011;59393;51.652;4.864;2022-10-29T16:42:45;16.45;;;3.72;;
71353;SDS011;59393;51.652;4.864;2022-10-29T16:45:13;14.63;;;3.23;;
71353;SDS011;59393;51.652;4.864;2022-10-29T16:47:39;16.10;;;3.90;;
71353;SDS011;59393;51.652;4.864;2022-10-29T16:50:06;17.63;;;3.75;;
71353;SDS011;59393;51.652;4.864;2022-10-29T16:52:32;19.25;;;3.53;;
71353;SDS011;59393;51.652;4.864;2022-10-29T16:54:58;12.30;;;3.58;;
71353;SDS011;59393;51.652;4.864;2022-10-29T16:57:24;12.63;;;3.17;;
71353;SDS011;59393;51.652;4.864;2022-10-29T16:59:50;14.68;;;3.20;;
71353;SDS011;59393;51.652;4.864;2022-10-29T17:02:16;16.42;;;3.88;;
71353;SDS011;59393;51.652;4.864;2022-10-29T17:04:42;16.58;;;3.78;;
71353;SDS011;59393;51.652;4.864;2022-10-29T17:07:08;19.52;;;3.70;;
71353;SDS011;59393;51.652;4.864;2022-10-29T17:09:34;15.97;;;3.90;;
71353;SDS011;59393;51.652;4.864;2022-10-29T17:12:01;12.93;;;4.07;;
71353;SDS011;59393;51.652;4.864;2022-10-29T17:14:27;24.10;;;4.10;;
71353;SDS011;59393;51.652;4.864;2022-10-29T17:16:53;11.88;;;3.38;;